createdAt,value
2022-09-12T00:01:08.454Z,14.79
2022-09-12T00:03:35.377Z,14.76
2022-09-12T00:06:07.280Z,14.71
2022-09-12T00:08:34.065Z,14.67
2022-09-12T00:11:05.139Z,14.63
2022-09-12T00:13:31.898Z,14.60
2022-09-12T00:15:58.481Z,14.55
2022-09-12T00:18:25.128Z,14.49
2022-09-12T00:20:51.825Z,14.45
2022-09-12T00:23:18.663Z,14.42
2022-09-12T00:25:46.905Z,14.39
2022-09-12T00:28:17.071Z,14.35
2022-09-12T00:30:44.588Z,14.32
2022-09-12T00:33:11.596Z,14.28
2022-09-12T00:35:42.455Z,14.25
2022-09-12T00:38:09.350Z,14.20
2022-09-12T00:40:36.250Z,14.16
2022-09-12T00:43:02.830Z,14.12
2022-09-12T00:45:31.923Z,14.09
2022-09-12T00:48:02.570Z,14.05
2022-09-12T00:50:29.671Z,14.02
2022-09-12T00:53:00.199Z,13.98
2022-09-12T00:55:30.610Z,13.94
2022-09-12T00:58:02.324Z,13.89
2022-09-12T01:00:30.635Z,13.87
2022-09-12T01:03:00.199Z,13.83
2022-09-12T01:05:28.767Z,13.80
2022-09-12T01:07:57.118Z,13.76
2022-09-12T01:10:24.761Z,13.74
2022-09-12T01:12:51.456Z,13.70
2022-09-12T01:15:18.355Z,13.66
2022-09-12T01:18:03.033Z,13.63
2022-09-12T01:20:53.747Z,13.59
2022-09-12T01:23:44.439Z,13.57
2022-09-12T01:26:31.615Z,13.52
2022-09-12T01:29:24.700Z,13.49
2022-09-12T01:32:04.893Z,13.45
2022-09-12T01:34:39.914Z,13.42
2022-09-12T01:37:15.405Z,13.39
2022-09-12T01:39:51.325Z,13.36
2022-09-12T01:42:24.163Z,13.32
2022-09-12T01:44:57.059Z,13.29
2022-09-12T01:47:33.577Z,13.26
2022-09-12T01:50:04.067Z,13.24
2022-09-12T01:52:38.359Z,13.21
2022-09-12T01:55:10.865Z,13.17
2022-09-12T01:57:42.227Z,13.15
2022-09-12T02:00:11.452Z,13.11
2022-09-12T02:02:44.055Z,13.09
2022-09-12T02:05:16.396Z,13.06
2022-09-12T02:07:47.399Z,13.04
2022-09-12T02:10:17.391Z,12.99
2022-09-12T02:12:48.937Z,12.96
2022-09-12T02:15:22.240Z,12.94
2022-09-12T02:17:54.916Z,12.91
2022-09-12T02:20:47.025Z,12.89
2022-09-12T02:23:17.306Z,12.84
2022-09-12T02:25:47.264Z,12.82
2022-09-12T02:28:17.145Z,12.79
2022-09-12T02:30:51.126Z,12.75
2022-09-12T02:33:26.914Z,12.73
2022-09-12T02:35:59.343Z,12.68
2022-09-12T02:38:32.716Z,12.65
2022-09-12T02:40:59.710Z,12.63
2022-09-12T02:43:26.501Z,12.61
2022-09-12T02:45:53.491Z,12.60
2022-09-12T02:48:27.206Z,12.57
2022-09-12T02:50:54.503Z,12.54
2022-09-12T02:53:21.956Z,12.53
2022-09-12T02:55:48.879Z,12.51
2022-09-12T02:58:18.309Z,12.49
2022-09-12T03:00:51.049Z,12.45
2022-09-12T03:03:49.420Z,12.43
2022-09-12T03:06:24.099Z,12.41
2022-09-12T03:09:03.000Z,12.40
2022-09-12T03:12:02.756Z,12.37
2022-09-12T03:14:43.942Z,12.35
2022-09-12T03:17:21.685Z,12.33
2022-09-12T03:20:01.120Z,12.31
2022-09-12T03:22:33.430Z,12.29
2022-09-12T03:25:07.176Z,12.28
2022-09-12T03:27:37.069Z,12.24
2022-09-12T03:30:05.027Z,12.23
2022-09-12T03:32:42.112Z,12.21
2022-09-12T03:35:10.950Z,12.18
2022-09-12T03:37:37.577Z,12.16
2022-09-12T03:40:05.882Z,12.15
2022-09-12T03:42:32.561Z,12.12
2022-09-12T03:44:59.170Z,12.10
2022-09-12T03:47:25.973Z,12.07
2022-09-12T03:49:52.771Z,12.05
2022-09-12T03:52:21.171Z,12.04
2022-09-12T03:54:48.107Z,12.00
2022-09-12T03:57:15.103Z,11.99
2022-09-12T03:59:41.863Z,11.94
2022-09-12T04:02:09.050Z,11.93
2022-09-12T04:04:35.833Z,11.91
2022-09-12T04:07:02.637Z,11.89
2022-09-12T04:09:30.965Z,11.88
2022-09-12T04:11:57.980Z,11.87
2022-09-12T04:14:24.764Z,11.85
2022-09-12T04:16:51.637Z,11.83
2022-09-12T04:19:18.293Z,11.79
2022-09-12T04:21:44.891Z,11.76
2022-09-12T04:24:11.965Z,11.74
2022-09-12T04:26:40.466Z,11.73
2022-09-12T04:29:07.163Z,11.71
2022-09-12T04:31:33.929Z,11.69
2022-09-12T04:34:01.541Z,11.67
2022-09-12T04:36:29.652Z,11.65
2022-09-12T04:38:56.424Z,11.63
2022-09-12T04:41:24.932Z,11.61
2022-09-12T04:43:55.279Z,11.60
2022-09-12T04:46:22.293Z,11.58
2022-09-12T04:48:53.262Z,11.58
2022-09-12T04:51:24.872Z,11.57
2022-09-12T04:53:53.678Z,11.57
2022-09-12T04:56:21.601Z,11.57
2022-09-12T04:58:49.138Z,11.57
2022-09-12T05:01:19.369Z,11.58
2022-09-12T05:03:47.751Z,11.57
2022-09-12T05:06:16.528Z,11.57
2022-09-12T05:08:43.595Z,11.59
2022-09-12T05:11:12.683Z,11.61
2022-09-12T05:13:39.994Z,11.62
2022-09-12T05:16:08.225Z,11.64
2022-09-12T05:18:37.032Z,11.63
2022-09-12T05:21:06.112Z,11.64
2022-09-12T05:23:32.896Z,11.66
2022-09-12T05:26:00.742Z,11.68
2022-09-12T05:28:31.344Z,11.69
2022-09-12T05:31:02.404Z,11.70
2022-09-12T05:33:30.077Z,11.73
2022-09-12T05:35:58.611Z,11.76
2022-09-12T05:38:25.492Z,11.80
2022-09-12T05:40:52.487Z,11.83
2022-09-12T05:43:19.324Z,11.86
2022-09-12T05:45:46.475Z,11.89
2022-09-12T05:48:13.198Z,11.93
2022-09-12T05:50:40.175Z,11.97
2022-09-12T05:53:08.192Z,12.04
2022-09-12T05:55:34.976Z,12.09
2022-09-12T05:58:01.565Z,12.15
2022-09-12T06:00:31.602Z,12.22
2022-09-12T06:03:00.006Z,12.30
2022-09-12T06:05:26.531Z,12.37
2022-09-12T06:07:53.216Z,12.46
2022-09-12T06:10:21.196Z,12.55
2022-09-12T06:12:47.774Z,12.65
2022-09-12T06:15:14.889Z,12.75
2022-09-12T06:17:41.532Z,12.85
2022-09-12T06:20:08.671Z,12.94
2022-09-12T06:22:35.289Z,13.04
2022-09-12T06:25:01.802Z,13.15
2022-09-12T06:27:29.820Z,13.24
2022-09-12T06:29:56.447Z,13.32
2022-09-12T06:32:23.062Z,13.39
2022-09-12T06:34:49.777Z,13.50
2022-09-12T06:37:16.373Z,13.61
2022-09-12T06:39:42.977Z,13.71
2022-09-12T06:42:09.686Z,13.81
2022-09-12T06:44:37.751Z,13.89
2022-09-12T06:47:04.499Z,14.00
2022-09-12T06:49:31.098Z,14.11
2022-09-12T06:51:57.642Z,14.21
2022-09-12T06:54:24.228Z,14.33
2022-09-12T06:56:50.821Z,14.43
2022-09-12T06:59:17.386Z,14.54
2022-09-12T07:01:45.569Z,14.64
2022-09-12T07:04:12.249Z,14.74
2022-09-12T07:06:41.265Z,14.82
2022-09-12T07:09:10.801Z,14.89
2022-09-12T07:11:39.389Z,15.01
2022-09-12T07:14:08.543Z,15.11
2022-09-12T07:16:36.048Z,15.21
2022-09-12T07:19:06.031Z,15.30
2022-09-12T07:21:33.053Z,15.42
2022-09-12T07:23:59.728Z,15.51
2022-09-12T07:26:27.895Z,15.59
2022-09-12T07:29:07.905Z,15.69
2022-09-12T07:31:43.107Z,15.78
2022-09-12T07:34:11.354Z,15.88
2022-09-12T07:36:38.249Z,15.95
2022-09-12T07:39:04.971Z,16.01
2022-09-12T07:41:32.855Z,16.09
2022-09-12T07:44:01.324Z,16.15
2022-09-12T07:46:29.376Z,16.21
2022-09-12T07:48:57.692Z,16.26
2022-09-12T07:51:27.086Z,16.31
2022-09-12T07:53:54.248Z,16.37
2022-09-12T07:56:20.815Z,16.44
2022-09-12T07:58:48.181Z,16.52
2022-09-12T08:01:16.221Z,16.57
2022-09-12T08:03:44.503Z,16.62
2022-09-12T08:06:13.126Z,16.69
2022-09-12T08:08:41.933Z,16.74
2022-09-12T08:11:10.285Z,16.78
2022-09-12T08:13:38.274Z,16.84
2022-09-12T08:16:07.255Z,16.91
2022-09-12T08:18:36.069Z,16.92
2022-09-12T08:21:05.526Z,16.96
2022-09-12T08:23:32.493Z,17.00
2022-09-12T08:26:05.786Z,17.04
2022-09-12T08:28:35.071Z,17.08
2022-09-12T08:31:02.730Z,17.13
2022-09-12T08:33:30.157Z,17.18
2022-09-12T08:36:03.089Z,17.22
2022-09-12T08:38:29.920Z,17.27
2022-09-12T08:41:04.447Z,17.33
2022-09-12T08:43:46.656Z,17.37
2022-09-12T08:46:19.535Z,17.41
2022-09-12T08:48:46.890Z,17.41
2022-09-12T08:51:16.819Z,17.39
2022-09-12T08:53:45.171Z,17.39
2022-09-12T08:56:13.484Z,17.41
2022-09-12T08:58:43.268Z,17.44
2022-09-12T09:01:17.813Z,17.50
2022-09-12T09:04:04.723Z,17.55
2022-09-12T09:06:46.980Z,17.60
2022-09-12T09:09:21.769Z,17.66
2022-09-12T09:12:06.094Z,17.69
2022-09-12T09:14:49.810Z,17.75
2022-09-12T09:17:19.708Z,17.78
2022-09-12T09:19:52.181Z,17.84
2022-09-12T09:22:28.353Z,17.90
2022-09-12T09:25:00.065Z,17.95
2022-09-12T09:27:41.626Z,18.00
2022-09-12T09:30:14.904Z,18.05
2022-09-12T09:32:42.271Z,18.09
2022-09-12T09:35:16.322Z,18.15
2022-09-12T09:37:48.093Z,18.21
2022-09-12T09:40:22.676Z,18.27
2022-09-12T09:42:59.247Z,18.35
2022-09-12T09:45:26.462Z,18.40
2022-09-12T09:47:57.233Z,18.45
2022-09-12T09:50:24.342Z,18.50
2022-09-12T09:52:52.537Z,18.56
2022-09-12T09:55:23.224Z,18.63
2022-09-12T09:57:50.059Z,18.68
2022-09-12T10:00:24.373Z,18.77
2022-09-12T10:03:31.189Z,18.86
2022-09-12T10:06:00.607Z,18.97
2022-09-12T10:08:29.420Z,19.08
2022-09-12T10:10:58.903Z,19.18
2022-09-12T10:13:31.582Z,19.26
2022-09-12T10:16:02.523Z,19.31
2022-09-12T10:18:41.429Z,19.36
2022-09-12T10:21:18.220Z,19.46
2022-09-12T10:23:46.513Z,19.50
2022-09-12T10:26:15.766Z,19.56
2022-09-12T10:28:45.684Z,19.65
2022-09-12T10:31:17.776Z,19.74
2022-09-12T10:33:47.450Z,19.81
2022-09-12T10:36:15.565Z,19.85
2022-09-12T10:38:49.345Z,19.96
2022-09-12T10:41:16.170Z,20.01
2022-09-12T10:43:43.655Z,20.02
2022-09-12T10:46:31.437Z,20.04
2022-09-12T10:49:32.307Z,20.06
2022-09-12T10:52:17.539Z,20.11
2022-09-12T10:54:44.163Z,20.18
2022-09-12T10:57:46.274Z,20.30
2022-09-12T11:00:15.270Z,20.47
2022-09-12T11:02:51.609Z,20.60
2022-09-12T11:05:32.662Z,20.66
2022-09-12T11:08:08.184Z,20.68
2022-09-12T11:10:44.520Z,20.69
2022-09-12T11:13:25.515Z,20.76
2022-09-12T11:16:19.761Z,20.90
2022-09-12T11:19:10.714Z,20.92
2022-09-12T11:22:03.960Z,20.86
2022-09-12T11:24:41.949Z,20.83
2022-09-12T11:27:24.633Z,20.85
2022-09-12T11:29:58.056Z,20.95
2022-09-12T11:32:42.284Z,21.06
2022-09-12T11:35:19.251Z,21.14
2022-09-12T11:37:59.092Z,21.19
2022-09-12T11:40:34.489Z,21.32
2022-09-12T11:43:07.375Z,21.48
2022-09-12T11:45:39.913Z,21.64
2022-09-12T11:48:12.857Z,21.76
2022-09-12T11:50:40.763Z,21.88
2022-09-12T11:53:17.024Z,21.97
2022-09-12T11:55:55.532Z,22.07
2022-09-12T11:58:26.551Z,22.14
2022-09-12T12:00:57.932Z,22.17
2022-09-12T12:03:32.605Z,22.22
2022-09-12T12:06:04.386Z,22.31
2022-09-12T12:08:37.774Z,22.43
2022-09-12T12:11:05.554Z,22.53
2022-09-12T12:13:34.017Z,22.64
2022-09-12T12:16:05.078Z,22.77
2022-09-12T12:18:33.353Z,22.90
2022-09-12T12:24:11.805Z,23.26
2022-09-12T12:26:55.403Z,23.26
2022-09-12T12:29:38.301Z,23.25
2022-09-12T12:32:25.263Z,23.29
2022-09-12T12:35:01.248Z,23.28
2022-09-12T12:37:54.239Z,23.27
2022-09-12T12:40:26.409Z,23.30
2022-09-12T12:43:05.054Z,23.27
2022-09-12T12:46:11.411Z,23.23
2022-09-12T12:48:50.155Z,23.08
2022-09-12T12:51:54.684Z,23.01
2022-09-12T12:54:30.257Z,22.94
2022-09-12T12:57:18.281Z,22.93
2022-09-12T12:59:51.770Z,22.99
2022-09-12T13:02:25.229Z,22.94
2022-09-12T13:04:53.360Z,22.98
2022-09-12T13:07:30.121Z,23.06
2022-09-12T13:09:58.213Z,23.09
2022-09-12T13:12:30.355Z,23.09
2022-09-12T13:14:58.939Z,23.08
2022-09-12T13:17:30.688Z,23.11
2022-09-12T13:20:28.451Z,23.15
2022-09-12T13:22:56.047Z,23.10
2022-09-12T13:25:26.903Z,23.04
2022-09-12T13:28:06.170Z,23.01
2022-09-12T13:30:35.221Z,22.99
2022-09-12T13:33:21.950Z,23.00
2022-09-12T13:36:06.486Z,23.02
2022-09-12T13:38:43.338Z,23.07
2022-09-12T13:41:26.512Z,23.19
2022-09-12T13:43:54.783Z,23.29
2022-09-12T13:46:27.730Z,23.38
2022-09-12T13:48:54.541Z,23.48
2022-09-12T13:51:24.514Z,23.56
2022-09-12T13:53:53.792Z,23.60
2022-09-12T13:56:20.640Z,23.62
2022-09-12T13:58:56.118Z,23.61
2022-09-12T14:01:24.074Z,23.61
2022-09-12T14:03:56.738Z,23.61
2022-09-12T14:06:25.203Z,23.62
2022-09-12T14:08:51.881Z,23.62
2022-09-12T14:11:26.054Z,23.63
2022-09-12T14:13:54.447Z,23.60
2022-09-12T14:16:21.363Z,23.58
2022-09-12T14:18:49.044Z,23.52
2022-09-12T14:21:32.429Z,23.48
2022-09-12T14:23:59.658Z,23.49
2022-09-12T14:26:28.103Z,23.50
2022-09-12T14:28:56.573Z,23.51
2022-09-12T14:31:24.846Z,23.50
2022-09-12T14:33:53.383Z,23.46
2022-09-12T14:36:23.987Z,23.42
2022-09-12T14:38:53.839Z,23.36
2022-09-12T14:41:27.656Z,23.33
2022-09-12T14:43:58.884Z,23.31
2022-09-12T14:46:30.819Z,23.29
2022-09-12T14:49:00.005Z,23.26
2022-09-12T14:51:30.881Z,23.23
2022-09-12T14:53:57.821Z,23.19
2022-09-12T14:56:38.650Z,23.17
2022-09-12T14:59:28.560Z,23.12
2022-09-12T15:02:31.380Z,23.10
2022-09-12T15:05:17.162Z,23.06
2022-09-12T15:07:50.923Z,23.00
2022-09-12T15:10:20.541Z,22.97
2022-09-12T15:12:47.105Z,22.94
2022-09-12T15:15:17.550Z,22.89
2022-09-12T15:17:44.141Z,22.85
2022-09-12T15:20:11.954Z,22.81
2022-09-12T15:22:39.330Z,22.78
2022-09-12T15:25:06.838Z,22.76
2022-09-12T15:27:33.524Z,22.73
2022-09-12T15:30:00.141Z,22.71
2022-09-12T15:32:30.041Z,22.68
2022-09-12T15:34:56.854Z,22.65
2022-09-12T15:37:24.218Z,22.62
2022-09-12T15:39:51.651Z,22.59
2022-09-12T15:42:29.231Z,22.55
2022-09-12T15:44:58.453Z,22.52
2022-09-12T15:47:29.761Z,22.48
2022-09-12T15:49:57.041Z,22.44
2022-09-12T15:52:23.674Z,22.40
2022-09-12T15:54:50.218Z,22.37
2022-09-12T15:57:16.728Z,22.31
2022-09-12T15:59:43.322Z,22.27
2022-09-12T16:02:11.656Z,22.21
2022-09-12T16:04:39.936Z,22.15
2022-09-12T16:07:06.466Z,22.11
2022-09-12T16:09:33.079Z,22.06
2022-09-12T16:11:59.689Z,22.01
2022-09-12T16:14:26.210Z,21.95
2022-09-12T16:16:54.224Z,21.90
2022-09-12T16:19:21.439Z,21.85
2022-09-12T16:21:49.797Z,21.81
2022-09-12T16:24:16.584Z,21.76
2022-09-12T16:26:43.248Z,21.72
2022-09-12T16:29:12.639Z,21.69
2022-09-12T16:31:39.215Z,21.62
2022-09-12T16:34:06.064Z,21.56
2022-09-12T16:36:32.861Z,21.50
2022-09-12T16:39:00.921Z,21.43
2022-09-12T16:41:27.533Z,21.39
2022-09-12T16:43:54.889Z,21.33
2022-09-12T16:46:23.688Z,21.27
2022-09-12T16:48:52.875Z,21.22
2022-09-12T16:51:21.468Z,21.16
2022-09-12T16:53:48.931Z,21.09
2022-09-12T16:56:17.469Z,21.03
2022-09-12T16:58:44.716Z,20.95
2022-09-12T17:01:13.880Z,20.90
2022-09-12T17:03:40.632Z,20.83
2022-09-12T17:06:09.224Z,20.76
2022-09-12T17:08:37.673Z,20.69
2022-09-12T17:11:06.588Z,20.63
2022-09-12T17:14:00.103Z,20.56
2022-09-12T17:16:22.212Z,20.49
2022-09-12T17:18:49.318Z,20.43
2022-09-12T17:21:15.906Z,20.35
2022-09-12T17:23:42.591Z,20.28
2022-09-12T17:26:10.272Z,20.20
2022-09-12T17:28:39.288Z,20.14
2022-09-12T17:31:08.138Z,20.07
2022-09-12T17:33:34.821Z,20.00
2022-09-12T17:36:02.456Z,19.93
2022-09-12T17:38:31.556Z,19.84
2022-09-12T17:41:04.791Z,19.78
2022-09-12T17:43:31.288Z,19.70
2022-09-12T17:45:59.255Z,19.63
2022-09-12T17:48:25.941Z,19.55
2022-09-12T17:50:52.981Z,19.47
2022-09-12T17:53:20.818Z,19.42
2022-09-12T17:55:51.449Z,19.35
2022-09-12T17:58:20.593Z,19.28
2022-09-12T18:00:47.532Z,19.21
2022-09-12T18:03:16.506Z,19.13
2022-09-12T18:05:46.986Z,19.07
2022-09-12T18:08:14.349Z,18.99
2022-09-12T18:10:41.541Z,18.92
2022-09-12T18:13:08.126Z,18.85
2022-09-12T18:15:35.001Z,18.78
2022-09-12T18:18:01.977Z,18.71
2022-09-12T18:20:30.017Z,18.64
2022-09-12T18:22:56.697Z,18.56
2022-09-12T18:25:23.403Z,18.46
2022-09-12T18:27:49.959Z,18.37
2022-09-12T18:30:21.570Z,18.29
2022-09-12T18:32:48.923Z,18.22
2022-09-12T18:35:15.669Z,18.13
2022-09-12T18:37:44.124Z,18.07
2022-09-12T18:40:11.396Z,17.98
2022-09-12T18:42:38.066Z,17.93
2022-09-12T18:45:05.273Z,17.88
2022-09-12T18:47:31.868Z,17.82
2022-09-12T18:49:58.475Z,17.77
2022-09-12T18:52:25.118Z,17.72
2022-09-12T18:54:53.143Z,17.66
2022-09-12T18:57:19.692Z,17.58
2022-09-12T18:59:46.254Z,17.53
2022-09-12T19:02:15.719Z,17.47
2022-09-12T19:04:42.779Z,17.42
2022-09-12T19:07:09.452Z,17.37
2022-09-12T19:09:36.035Z,17.30
2022-09-12T19:12:04.497Z,17.25
2022-09-12T19:14:31.087Z,17.19
2022-09-12T19:16:57.666Z,17.14
2022-09-12T19:19:24.249Z,17.09
2022-09-12T19:21:50.785Z,17.02
2022-09-12T19:24:17.600Z,16.97
2022-09-12T19:26:44.564Z,16.93
2022-09-12T19:29:12.576Z,16.88
2022-09-12T19:31:39.254Z,16.83
2022-09-12T19:34:07.196Z,16.77
2022-09-12T19:36:50.399Z,16.72
2022-09-12T19:39:18.243Z,16.67
2022-09-12T19:41:45.332Z,16.62
2022-09-12T19:44:13.605Z,16.57
2022-09-12T19:46:40.421Z,16.53
2022-09-12T19:49:07.359Z,16.49
2022-09-12T19:51:33.986Z,16.44
2022-09-12T19:54:00.680Z,16.40
2022-09-12T19:56:27.430Z,16.36
2022-09-12T19:58:56.619Z,16.32
2022-09-12T20:01:26.966Z,16.28
2022-09-12T20:03:53.550Z,16.22
2022-09-12T20:06:20.670Z,16.19
2022-09-12T20:08:47.370Z,16.15
2022-09-12T20:11:15.670Z,16.10
2022-09-12T20:13:42.257Z,16.06
2022-09-12T20:16:11.578Z,16.03
2022-09-12T20:18:39.668Z,15.99
2022-09-12T20:21:11.033Z,15.95
2022-09-12T20:23:37.849Z,15.91
2022-09-12T20:26:04.625Z,15.88
2022-09-12T20:28:31.494Z,15.84
2022-09-12T20:31:01.176Z,15.81
2022-09-12T20:33:27.796Z,15.77
2022-09-12T20:36:01.416Z,15.74
2022-09-12T20:38:28.006Z,15.70
2022-09-12T20:40:54.584Z,15.67
2022-09-12T20:43:21.173Z,15.63
2022-09-12T20:45:47.873Z,15.60
2022-09-12T20:48:14.508Z,15.57
2022-09-12T20:50:41.016Z,15.54
2022-09-12T20:53:08.996Z,15.49
2022-09-12T20:55:35.610Z,15.44
2022-09-12T20:58:02.253Z,15.40
2022-09-12T21:00:28.938Z,15.34
2022-09-12T21:02:55.714Z,15.31
2022-09-12T21:05:22.367Z,15.27
2022-09-12T21:07:49.095Z,15.23
2022-09-12T21:10:17.154Z,15.19
2022-09-12T21:12:43.708Z,15.17
2022-09-12T21:15:10.671Z,15.14
2022-09-12T21:17:37.215Z,15.10
2022-09-12T21:20:07.908Z,15.06
2022-09-12T21:22:37.125Z,15.02
2022-09-12T21:25:04.331Z,14.99
2022-09-12T21:27:32.321Z,14.96
2022-09-12T21:29:59.147Z,14.93
2022-09-12T21:32:25.741Z,14.91
2022-09-12T21:34:52.340Z,14.89
2022-09-12T21:37:18.906Z,14.87
2022-09-12T21:39:45.473Z,14.84
2022-09-12T21:42:12.114Z,14.81
2022-09-12T21:44:40.080Z,14.80
2022-09-12T21:47:06.738Z,14.77
2022-09-12T21:49:33.331Z,14.75
2022-09-12T21:51:59.831Z,14.72
2022-09-12T21:54:26.366Z,14.70
2022-09-12T21:56:52.990Z,14.67
2022-09-12T21:59:20.229Z,14.66
2022-09-12T22:01:48.231Z,14.65
2022-09-12T22:04:15.004Z,14.62
2022-09-12T22:06:41.518Z,14.60
2022-09-12T22:09:08.108Z,14.57
2022-09-12T22:11:34.667Z,14.55
2022-09-12T22:14:01.194Z,14.53
2022-09-12T22:16:27.865Z,14.50
2022-09-12T22:18:56.034Z,14.48
2022-09-12T22:21:22.844Z,14.45
2022-09-12T22:23:49.854Z,14.44
2022-09-12T22:26:16.667Z,14.42
2022-09-12T22:28:44.031Z,14.40
2022-09-12T22:31:12.349Z,14.40
2022-09-12T22:33:39.835Z,14.37
2022-09-12T22:36:08.700Z,14.35
2022-09-12T22:38:35.814Z,14.33
2022-09-12T22:41:06.511Z,14.29
2022-09-12T22:43:33.257Z,14.26
2022-09-12T22:45:59.912Z,14.24
2022-09-12T22:48:27.059Z,14.22
2022-09-12T22:50:53.669Z,14.20
2022-09-12T22:53:21.594Z,14.17
2022-09-12T22:55:48.149Z,14.15
2022-09-12T22:58:14.778Z,14.13
2022-09-12T23:00:46.161Z,14.12
2022-09-12T23:03:12.784Z,14.10
2022-09-12T23:05:39.404Z,14.07
2022-09-12T23:08:05.949Z,14.05
2022-09-12T23:10:36.325Z,14.04
2022-09-12T23:13:03.461Z,14.02
2022-09-12T23:15:29.996Z,14.01
2022-09-12T23:17:56.853Z,14.00
2022-09-12T23:20:23.673Z,13.99
2022-09-12T23:22:50.595Z,13.97
2022-09-12T23:25:17.372Z,13.95
2022-09-12T23:27:45.319Z,13.96
2022-09-12T23:30:12.021Z,13.93
2022-09-12T23:32:38.653Z,13.92
2022-09-12T23:35:05.892Z,13.91
2022-09-12T23:37:32.482Z,13.90
2022-09-12T23:39:59.078Z,13.90
2022-09-12T23:42:25.665Z,13.89
2022-09-12T23:44:53.846Z,13.89
2022-09-12T23:47:20.422Z,13.88
2022-09-12T23:49:46.971Z,13.88
2022-09-12T23:52:13.612Z,13.87
2022-09-12T23:54:40.216Z,13.86
2022-09-12T23:57:06.761Z,13.85
2022-09-12T23:59:33.337Z,13.85
